Time;durP1;ratioP1;P1;durP2;ratioP2;P2;SDS_P1;SDS_P2;PMS_P1;PMS_P2;Temp;Humidity;BMP_temperature;BMP_pressure;BME280_temperature;BME280_humidity;BME280_pressure;Samples;Min_cycle;Max_cycle;Signal;HPM_P1;HPM_P2
2022/09/03 00:02:14;;;;;;;2.80;1.10;;;16.90;88.90;;;;;;5078095;28;20044;-62
2022/09/03 00:04:42;;;;;;;2.55;1.08;;;16.80;89.20;;;;;;5113110;28;20089;-63
2022/09/03 00:07:25;;;;;;;4.88;1.30;;;16.80;89.60;;;;;;5093623;28;20498;-62
2022/09/03 00:09:58;;;;;;;5.60;1.17;;;16.70;89.90;;;;;;5113304;28;20047;-63
2022/09/03 00:12:30;;;;;;;3.17;0.98;;;16.60;90.00;;;;;;5112794;28;20043;-63
2022/09/03 00:14:59;;;;;;;3.03;1.10;;;16.50;90.20;;;;;;5112201;28;20078;-62
2022/09/03 00:17:48;;;;;;;4.32;1.23;;;16.50;90.30;;;;;;5094001;28;20066;-63
2022/09/03 00:20:29;;;;;;;2.78;1.27;;;16.50;90.50;;;;;;5112625;28;20088;-62
2022/09/03 00:23:00;;;;;;;3.15;1.15;;;16.40;90.70;;;;;;5094082;28;20036;-63
2022/09/03 00:25:39;;;;;;;2.58;0.95;;;16.30;90.90;;;;;;5112311;28;20040;-62
2022/09/03 00:28:18;;;;;;;2.88;1.02;;;16.30;91.30;;;;;;5093381;28;20158;-62
2022/09/03 00:30:52;;;;;;;3.90;1.25;;;16.20;91.20;;;;;;5113249;28;20040;-62
2022/09/03 00:33:24;;;;;;;3.40;1.40;;;16.20;91.50;;;;;;5094257;28;20088;-62
2022/09/03 00:36:02;;;;;;;4.78;1.40;;;16.10;91.60;;;;;;5111976;28;20399;-63
2022/09/03 00:38:31;;;;;;;5.38;1.38;;;16.10;91.80;;;;;;5077980;28;20040;-62
2022/09/03 00:41:32;;;;;;;3.33;1.55;;;16.00;92.00;;;;;;5094659;28;20043;-62
2022/09/03 00:44:10;;;;;;;3.90;1.15;;;16.00;92.40;;;;;;5093994;28;20503;-62
2022/09/03 00:46:51;;;;;;;2.15;0.98;;;15.90;92.50;;;;;;5094511;28;20088;-62
2022/09/03 00:49:38;;;;;;;3.72;1.10;;;15.90;92.70;;;;;;5111557;28;20047;-62
2022/09/03 00:52:59;;;;;;;3.38;1.20;;;15.80;93.10;;;;;;5077097;28;20168;-62
2022/09/03 00:55:57;;;;;;;3.90;1.20;;;15.80;93.10;;;;;;5009771;28;20049;-63
2022/09/03 00:58:54;;;;;;;7.38;1.40;;;15.70;93.40;;;;;;5112058;28;20053;-63
2022/09/03 01:01:27;;;;;;;2.53;1.02;;;15.70;93.70;;;;;;5093786;28;20484;-62
2022/09/03 01:04:26;;;;;;;3.75;1.08;;;15.60;94.00;;;;;;5093590;28;20043;-63
2022/09/03 01:07:03;;;;;;;3.55;1.27;;;15.60;94.30;;;;;;5094339;28;20050;-62
2022/09/03 01:10:04;;;;;;;2.42;1.00;;;15.50;94.60;;;;;;5116379;28;20185;-62
2022/09/03 01:12:51;;;;;;;6.30;1.23;;;15.50;95.20;;;;;;5098369;28;20036;-62
2022/09/03 01:15:29;;;;;;;2.70;1.10;;;15.40;95.40;;;;;;5097451;28;20039;-62
2022/09/03 01:18:33;;;;;;;3.85;1.20;;;15.40;95.50;;;;;;5097352;28;20056;-62
2022/09/03 01:21:28;;;;;;;3.45;1.20;;;15.40;96.00;;;;;;5059877;28;20047;-62
2022/09/03 01:23:56;;;;;;;7.05;1.45;;;15.40;95.90;;;;;;5079119;28;20575;-62
2022/09/03 01:27:00;;;;;;;4.20;1.13;;;15.40;96.10;;;;;;5096815;28;20051;-63
2022/09/03 01:29:33;;;;;;;3.83;1.30;;;15.40;96.50;;;;;;5115570;28;20392;-62
2022/09/03 01:32:29;;;;;;;5.32;1.20;;;15.30;96.60;;;;;;5115409;28;20036;-63
2022/09/03 01:35:29;;;;;;;2.95;1.20;;;15.30;96.60;;;;;;5097878;28;20161;-62
2022/09/03 01:38:14;;;;;;;4.78;1.20;;;15.30;96.70;;;;;;5116143;28;20043;-62
2022/09/03 01:44:05;;;;;;;3.38;1.05;;;15.20;96.90;;;;;;5097450;28;20054;-62
2022/09/03 01:46:38;;;;;;;3.15;1.63;;;15.20;97.20;;;;;;5115183;28;20476;-62
2022/09/03 01:49:40;;;;;;;2.63;1.00;;;15.20;97.30;;;;;;5115595;28;20448;-62
2022/09/03 01:52:12;;;;;;;2.42;1.10;;;15.20;97.20;;;;;;5044449;28;20052;-62
2022/09/03 01:54:54;;;;;;;2.22;0.98;;;15.20;97.30;;;;;;5097490;28;20047;-62
2022/09/03 01:57:34;;;;;;;3.50;1.10;;;15.20;97.40;;;;;;5097130;28;20043;-62
2022/09/03 02:00:07;;;;;;;5.10;1.10;;;15.10;97.50;;;;;;5096751;28;20067;-62
2022/09/03 02:02:34;;;;;;;4.57;1.35;;;15.10;97.50;;;;;;5115719;28;20039;-62
2022/09/03 02:05:05;;;;;;;3.63;1.38;;;15.10;97.70;;;;;;5097617;28;20088;-62
2022/09/03 02:07:34;;;;;;;4.38;1.40;;;15.10;97.80;;;;;;5096727;28;20075;-62
2022/09/03 02:10:02;;;;;;;3.42;1.00;;;15.10;97.80;;;;;;5097211;28;20126;-62
2022/09/03 02:12:35;;;;;;;3.38;1.33;;;15.00;97.90;;;;;;5097839;28;20442;-63
2022/09/03 02:15:07;;;;;;;2.13;1.10;;;15.00;98.00;;;;;;5114659;28;20043;-62
2022/09/03 02:17:34;;;;;;;3.40;1.05;;;15.00;98.00;;;;;;5097127;28;20522;-62
2022/09/03 02:20:05;;;;;;;10.27;1.70;;;15.00;98.00;;;;;;5096127;28;20054;-62
2022/09/03 02:22:31;;;;;;;4.32;1.00;;;15.00;98.10;;;;;;5079548;28;20036;-62
2022/09/03 02:24:57;;;;;;;3.03;1.13;;;15.00;98.10;;;;;;5097061;28;20044;-62
2022/09/03 02:27:23;;;;;;;3.35;1.13;;;15.00;98.30;;;;;;5095273;28;20450;-62
2022/09/03 02:29:49;;;;;;;3.75;1.15;;;15.00;98.30;;;;;;5115019;28;20050;-62
2022/09/03 02:32:15;;;;;;;4.10;1.38;;;15.00;98.30;;;;;;5114560;28;20061;-62
2022/09/03 02:34:44;;;;;;;2.45;1.10;;;15.00;98.40;;;;;;5095894;28;20547;-62
2022/09/03 02:37:14;;;;;;;5.60;1.65;;;15.00;98.30;;;;;;5114626;28;20085;-62
2022/09/03 02:39:40;;;;;;;4.38;1.50;;;15.00;98.40;;;;;;5114865;28;20059;-62
2022/09/03 02:42:15;;;;;;;4.57;1.30;;;14.90;98.30;;;;;;5113536;28;20039;-62
2022/09/03 02:44:47;;;;;;;5.68;1.60;;;14.90;98.50;;;;;;5096918;28;20447;-62
2022/09/03 02:47:13;;;;;;;6.05;1.33;;;14.90;98.40;;;;;;5096101;28;20043;-62
2022/09/03 02:49:39;;;;;;;3.08;1.30;;;14.90;98.50;;;;;;5095555;28;20043;-62
2022/09/03 02:52:11;;;;;;;3.97;1.73;;;14.90;98.50;;;;;;5114359;28;20092;-62
2022/09/03 02:54:38;;;;;;;4.05;1.77;;;14.90;98.50;;;;;;5114691;28;20040;-63
2022/09/03 02:57:06;;;;;;;4.07;1.40;;;14.90;98.50;;;;;;5094879;28;20050;-62
2022/09/03 02:59:32;;;;;;;5.13;1.55;;;14.90;98.60;;;;;;5096322;28;20075;-62
2022/09/03 03:01:58;;;;;;;4.88;1.30;;;14.80;98.60;;;;;;5114655;28;20039;-62
2022/09/03 03:04:24;;;;;;;5.15;1.80;;;14.80;98.70;;;;;;5077919;28;20042;-62
2022/09/03 03:06:49;;;;;;;3.33;1.45;;;14.80;98.60;;;;;;5114492;28;20045;-62
2022/09/03 03:09:16;;;;;;;3.53;1.20;;;14.80;98.70;;;;;;5078719;28;20051;-63
2022/09/03 03:11:42;;;;;;;3.78;1.35;;;14.80;98.70;;;;;;5095495;28;20407;-62
2022/09/03 03:14:08;;;;;;;4.97;1.70;;;14.80;98.80;;;;;;5113559;28;20039;-62
2022/09/03 03:16:34;;;;;;;2.90;1.40;;;14.80;98.90;;;;;;5095377;28;20039;-62
2022/09/03 03:18:59;;;;;;;5.47;1.70;;;14.80;99.10;;;;;;5095650;28;20055;-62
2022/09/03 03:21:25;;;;;;;3.78;1.55;;;14.80;99.20;;;;;;5113449;28;20044;-62
2022/09/03 03:23:50;;;;;;;2.88;1.27;;;14.80;99.20;;;;;;5078229;28;20086;-62
2022/09/03 03:26:19;;;;;;;5.07;1.40;;;14.80;99.10;;;;;;5113283;28;20039;-62
2022/09/03 03:28:47;;;;;;;6.13;1.63;;;14.80;99.20;;;;;;5078977;28;20420;-62
2022/09/03 03:31:15;;;;;;;3.42;1.38;;;14.80;99.20;;;;;;5094321;28;20079;-62
2022/09/03 03:33:41;;;;;;;4.60;1.80;;;14.80;99.50;;;;;;5113918;28;20087;-62
2022/09/03 03:36:10;;;;;;;3.42;1.30;;;14.80;99.30;;;;;;5113142;28;20512;-62
2022/09/03 03:38:36;;;;;;;8.38;1.75;;;14.80;99.40;;;;;;5078148;28;20114;-62
2022/09/03 03:41:17;;;;;;;5.13;1.40;;;14.80;99.40;;;;;;5095161;28;20043;-62
2022/09/03 03:43:44;;;;;;;3.38;1.30;;;14.80;99.50;;;;;;5095409;28;20046;-62
2022/09/03 03:46:10;;;;;;;4.10;1.48;;;14.70;99.60;;;;;;5094222;28;20084;-62
2022/09/03 03:48:38;;;;;;;4.88;1.30;;;14.70;99.80;;;;;;5095230;28;20161;-62
2022/09/03 03:51:06;;;;;;;3.65;1.48;;;14.70;99.80;;;;;;5094974;28;20388;-62
2022/09/03 03:53:37;;;;;;;5.35;1.48;;;14.70;99.80;;;;;;5077690;28;20047;-62
2022/09/03 03:56:05;;;;;;;3.10;1.30;;;14.70;99.80;;;;;;5094552;28;20511;-62
2022/09/03 03:58:32;;;;;;;8.15;1.85;;;14.70;99.90;;;;;;5095378;28;20044;-62
2022/09/03 04:01:06;;;;;;;5.38;1.40;;;14.70;99.90;;;;;;5094249;28;20119;-62
2022/09/03 04:03:33;;;;;;;4.70;1.50;;;14.70;99.90;;;;;;5113389;28;20039;-62
2022/09/03 04:05:59;;;;;;;3.63;1.52;;;14.70;99.90;;;;;;5077555;28;20112;-62
2022/09/03 04:08:28;;;;;;;9.05;1.60;;;14.70;99.90;;;;;;5077255;28;20483;-62
2022/09/03 04:10:58;;;;;;;3.90;1.55;;;14.80;99.90;;;;;;5095219;28;20420;-62
2022/09/03 04:13:23;;;;;;;4.13;1.52;;;14.70;99.90;;;;;;5093841;28;20097;-62
2022/09/03 04:15:49;;;;;;;2.95;1.50;;;14.70;99.90;;;;;;5113139;28;20114;-62
2022/09/03 04:18:14;;;;;;;4.47;1.42;;;14.70;99.90;;;;;;5077327;28;20135;-62
2022/09/03 04:20:40;;;;;;;3.55;1.50;;;14.70;99.90;;;;;;5093904;28;20051;-62
2022/09/03 04:23:06;;;;;;;3.80;1.27;;;14.70;99.90;;;;;;5094082;28;20388;-62
2022/09/03 04:25:32;;;;;;;3.67;1.40;;;14.70;99.90;;;;;;5113157;28;20093;-62
2022/09/03 04:27:58;;;;;;;3.67;1.40;;;14.70;99.90;;;;;;5093965;28;20050;-62
2022/09/03 04:30:24;;;;;;;4.05;1.25;;;14.70;99.90;;;;;;5112498;28;20046;-62
2022/09/03 04:32:53;;;;;;;5.38;1.63;;;14.70;99.90;;;;;;5094538;28;20043;-62
2022/09/03 04:35:24;;;;;;;4.22;1.50;;;14.70;99.90;;;;;;5111384;28;20058;-62
2022/09/03 04:37:50;;;;;;;3.17;1.30;;;14.80;99.90;;;;;;5112662;28;20075;-62
2022/09/03 04:40:16;;;;;;;4.82;1.65;;;14.80;99.90;;;;;;5112340;28;20082;-62
2022/09/03 04:42:42;;;;;;;4.53;1.48;;;14.80;99.90;;;;;;5111414;28;20040;-62
2022/09/03 04:45:08;;;;;;;5.20;1.88;;;14.80;99.90;;;;;;5112188;28;20043;-62
2022/09/03 04:47:36;;;;;;;3.92;1.52;;;14.80;99.90;;;;;;5094661;28;20073;-62
2022/09/03 04:50:05;;;;;;;4.70;1.95;;;14.80;99.90;;;;;;5093351;28;20039;-62
2022/09/03 04:52:31;;;;;;;4.00;1.42;;;14.80;99.90;;;;;;5112682;28;20044;-62
2022/09/03 04:54:57;;;;;;;3.42;1.58;;;14.80;99.90;;;;;;5094476;28;20048;-62
2022/09/03 04:57:23;;;;;;;7.03;1.65;;;14.80;99.90;;;;;;5111768;28;20369;-62
2022/09/03 04:59:48;;;;;;;3.15;1.60;;;14.80;99.90;;;;;;5112431;28;20047;-62
2022/09/03 05:02:14;;;;;;;3.67;1.55;;;14.70;99.90;;;;;;5093111;28;20043;-62
2022/09/03 05:04:41;;;;;;;3.80;1.60;;;14.70;99.90;;;;;;5112425;28;20039;-62
2022/09/03 05:07:07;;;;;;;3.30;1.70;;;14.80;99.90;;;;;;5093746;28;20035;-62
2022/09/03 05:09:33;;;;;;;4.15;1.80;;;14.70;99.90;;;;;;5076620;28;20046;-62
2022/09/03 05:11:59;;;;;;;4.20;1.73;;;14.70;99.90;;;;;;5077449;28;20046;-62
2022/09/03 05:14:24;;;;;;;3.83;1.83;;;14.70;99.90;;;;;;5093643;28;20372;-62
2022/09/03 05:16:50;;;;;;;4.25;1.65;;;14.70;99.90;;;;;;5111551;28;20093;-62
2022/09/03 05:19:16;;;;;;;3.45;1.50;;;14.70;99.90;;;;;;5111492;28;20555;-62
2022/09/03 05:21:42;;;;;;;3.67;1.50;;;14.70;99.90;;;;;;5094382;28;20123;-62
2022/09/03 05:24:08;;;;;;;4.22;1.60;;;14.70;99.90;;;;;;5111187;28;20548;-62
2022/09/03 05:26:37;;;;;;;3.65;1.77;;;14.70;99.90;;;;;;5094109;28;20047;-62
2022/09/03 05:29:08;;;;;;;3.80;1.48;;;14.70;99.90;;;;;;5093351;28;20480;-62
2022/09/03 05:31:37;;;;;;;2.78;1.45;;;14.60;99.90;;;;;;5111620;28;20152;-62
2022/09/03 05:34:04;;;;;;;4.75;1.70;;;14.70;99.90;;;;;;5093747;28;20055;-62
2022/09/03 05:36:35;;;;;;;8.05;1.83;;;14.70;99.90;;;;;;5093848;28;20036;-62
2022/09/03 05:39:01;;;;;;;4.22;1.88;;;14.70;99.90;;;;;;5093244;28;20040;-62
2022/09/03 05:41:28;;;;;;;3.47;1.45;;;14.60;99.90;;;;;;5093756;28;20050;-62
2022/09/03 05:43:57;;;;;;;3.55;1.50;;;14.70;99.90;;;;;;5077113;28;20035;-62
2022/09/03 05:46:30;;;;;;;5.60;1.80;;;14.70;99.90;;;;;;5092547;28;20047;-62
2022/09/03 05:49:01;;;;;;;5.35;1.60;;;14.70;99.90;;;;;;5112315;28;20484;-62
2022/09/03 05:51:27;;;;;;;5.40;1.50;;;14.70;99.90;;;;;;5092545;28;20119;-62
2022/09/03 05:53:54;;;;;;;7.75;1.83;;;14.70;99.90;;;;;;5093916;28;20044;-63
2022/09/03 05:56:22;;;;;;;3.95;1.70;;;14.70;99.90;;;;;;5096318;28;20065;-62
2022/09/03 05:58:50;;;;;;;5.88;1.83;;;14.70;99.90;;;;;;5114920;28;20044;-62
2022/09/03 06:01:24;;;;;;;3.95;1.75;;;14.80;99.90;;;;;;5115106;28;20035;-62
2022/09/03 06:03:57;;;;;;;4.63;1.55;;;14.80;99.90;;;;;;5115696;28;20076;-62
2022/09/03 06:06:26;;;;;;;6.97;1.90;;;14.80;99.90;;;;;;5096229;28;20136;-62
2022/09/03 06:08:57;;;;;;;7.75;1.90;;;14.80;99.90;;;;;;5080330;28;20035;-62
2022/09/03 06:11:28;;;;;;;4.82;1.88;;;14.80;99.90;;;;;;5096622;28;21154;-62
2022/09/03 06:13:55;;;;;;;4.97;1.95;;;14.90;99.90;;;;;;5096573;28;20050;-62
2022/09/03 06:16:22;;;;;;;4.57;1.85;;;14.90;99.90;;;;;;5096468;28;20039;-62
2022/09/03 06:18:48;;;;;;;3.72;1.63;;;14.90;99.90;;;;;;5115134;28;20052;-62
2022/09/03 06:21:14;;;;;;;4.50;1.73;;;15.00;99.90;;;;;;5078623;28;20500;-62
2022/09/03 06:23:41;;;;;;;4.35;1.80;;;15.00;99.90;;;;;;5115176;28;20035;-62
2022/09/03 06:26:09;;;;;;;4.45;1.60;;;15.00;99.90;;;;;;5114631;28;20410;-62
2022/09/03 06:28:36;;;;;;;3.15;1.48;;;15.00;99.90;;;;;;5096239;28;20487;-62
2022/09/03 06:31:07;;;;;;;5.70;1.63;;;15.00;99.90;;;;;;5114910;28;20456;-62
2022/09/03 06:33:34;;;;;;;4.43;1.77;;;15.10;99.90;;;;;;5114061;28;20044;-62
2022/09/03 06:36:02;;;;;;;8.65;2.42;;;15.20;99.90;;;;;;5115101;28;20042;-62
2022/09/03 06:38:34;;;;;;;5.30;2.03;;;15.30;99.90;;;;;;5114821;28;20404;-62
2022/09/03 06:41:02;;;;;;;4.28;1.60;;;15.40;99.90;;;;;;5095762;28;20036;-62
2022/09/03 06:43:29;;;;;;;4.88;1.60;;;15.50;99.90;;;;;;5115166;28;20051;-62
2022/09/03 06:46:03;;;;;;;3.75;1.88;;;15.60;99.90;;;;;;5096480;28;20118;-62
2022/09/03 06:48:31;;;;;;;3.33;1.85;;;15.70;99.90;;;;;;5095739;28;20044;-62
2022/09/03 06:51:00;;;;;;;5.50;2.13;;;15.80;99.90;;;;;;5096373;28;20514;-62
2022/09/03 06:53:28;;;;;;;3.83;1.90;;;15.80;99.80;;;;;;5096244;28;20400;-62
2022/09/03 06:55:58;;;;;;;5.70;1.80;;;15.90;99.90;;;;;;5095359;28;20096;-62
2022/09/03 06:58:28;;;;;;;6.25;1.55;;;16.00;99.60;;;;;;5095789;28;20055;-62
2022/09/03 07:01:05;;;;;;;5.82;1.60;;;16.00;99.30;;;;;;5093742;28;20066;-62
2022/09/03 07:03:32;;;;;;;4.55;1.80;;;16.10;99.30;;;;;;5100878;28;20032;-62
2022/09/03 07:06:05;;;;;;;4.95;1.67;;;16.20;99.10;;;;;;5091565;28;20117;-62
2022/09/03 07:08:32;;;;;;;5.13;1.80;;;16.30;98.80;;;;;;5094437;27;20036;-62
2022/09/03 07:11:12;;;;;;;5.90;1.95;;;16.30;98.50;;;;;;5127420;27;20043;-63
2022/09/03 07:13:41;;;;;;;3.70;1.80;;;16.40;98.30;;;;;;5095842;28;20044;-63
2022/09/03 07:16:22;;;;;;;6.43;1.85;;;16.40;98.10;;;;;;5101805;27;20055;-62
2022/09/03 07:18:48;;;;;;;4.15;1.92;;;16.40;97.70;;;;;;5069579;28;20398;-62
2022/09/03 07:21:23;;;;;;;6.68;2.03;;;16.50;97.60;;;;;;5075848;28;20044;-62
2022/09/03 07:23:50;;;;;;;;;;;16.50;97.50;;;;;;5089618;28;20070;-62
2022/09/03 07:26:21;;;;;;;7.78;1.75;;;16.60;97.40;;;;;;5088935;28;19920;-62
2022/09/03 07:28:47;;;;;;;5.47;2.22;;;16.60;97.20;;;;;;5089976;28;20040;-62
2022/09/03 07:31:24;;;;;;;4.53;2.15;;;16.70;97.00;;;;;;5087084;28;20048;-62
2022/09/03 07:33:54;;;;;;;3.67;1.80;;;16.80;96.90;;;;;;5090029;28;20051;-62
2022/09/03 07:36:22;;;;;;;4.90;1.92;;;16.90;96.70;;;;;;5075771;28;20039;-62
2022/09/03 07:38:47;;;;;;;3.38;1.35;;;16.90;96.60;;;;;;5090691;28;20048;-62
2022/09/03 07:41:14;;;;;;;4.25;1.80;;;17.00;96.60;;;;;;5090350;28;20047;-62
2022/09/03 07:43:43;;;;;;;6.13;1.70;;;17.10;96.50;;;;;;5072756;28;20113;-62
2022/09/03 07:46:22;;;;;;;4.65;2.03;;;17.20;96.00;;;;;;5089345;28;20036;-62
2022/09/03 07:49:06;;;;;;;5.90;2.10;;;17.30;95.90;;;;;;5091213;28;20126;-62
2022/09/03 07:51:34;;;;;;;5.90;1.75;;;17.30;95.50;;;;;;5087205;28;20135;-62
2022/09/03 07:54:02;;;;;;;3.78;1.48;;;17.30;95.20;;;;;;5090720;28;20055;-62
2022/09/03 07:56:30;;;;;;;5.63;1.92;;;17.40;94.90;;;;;;5094146;28;20054;-62
2022/09/03 07:58:56;;;;;;;5.57;1.52;;;17.50;95.00;;;;;;5093935;28;20080;-62
2022/09/03 08:01:23;;;;;;;4.80;1.67;;;17.50;95.00;;;;;;5061312;28;20052;-62
2022/09/03 08:03:52;;;;;;;7.30;1.88;;;17.60;95.10;;;;;;5085908;28;20477;-63
2022/09/03 08:06:19;;;;;;;3.83;1.80;;;17.70;94.90;;;;;;5081906;28;20119;-62
2022/09/03 08:08:45;;;;;;;5.32;2.22;;;17.80;94.20;;;;;;5092472;28;20036;-62
2022/09/03 08:11:15;;;;;;;4.18;1.75;;;17.90;94.10;;;;;;5108803;28;20131;-62
2022/09/03 08:13:43;;;;;;;3.67;1.50;;;17.90;93.70;;;;;;5108386;28;20130;-62
2022/09/03 08:16:15;;;;;;;5.03;1.95;;;18.00;93.70;;;;;;5097525;28;20047;-62
2022/09/03 08:18:41;;;;;;;4.72;1.85;;;18.10;93.70;;;;;;5104897;28;20063;-63
2022/09/03 08:21:14;;;;;;;4.95;1.75;;;18.20;93.60;;;;;;5088835;28;20048;-63
2022/09/03 08:23:41;;;;;;;4.20;1.50;;;18.30;93.50;;;;;;5102722;27;20035;-64
2022/09/03 08:26:08;;;;;;;5.07;1.92;;;18.30;93.60;;;;;;5074025;28;20039;-63
2022/09/03 08:28:35;;;;;;;4.13;1.30;;;18.40;93.20;;;;;;5111586;27;20040;-63
2022/09/03 08:31:10;;;;;;;4.90;1.95;;;18.50;93.10;;;;;;5092881;28;20044;-62
2022/09/03 08:33:36;;;;;;;3.67;1.55;;;18.60;93.00;;;;;;5080701;28;20075;-63
2022/09/03 08:36:11;;;;;;;5.88;1.80;;;18.70;92.30;;;;;;5130658;27;20046;-63
2022/09/03 08:38:38;;;;;;;3.47;1.48;;;18.70;91.90;;;;;;5130801;27;20039;-63
2022/09/03 08:41:32;;;;;;;7.20;1.80;;;18.70;91.90;;;;;;5087367;28;20079;-63
2022/09/03 08:44:23;;;;;;;3.87;1.40;;;18.70;91.70;;;;;;5094080;28;20093;-63
2022/09/03 08:47:07;;;;;;;3.33;1.50;;;18.90;92.00;;;;;;5111285;28;20418;-63
2022/09/03 08:49:36;;;;;;;3.65;1.48;;;19.00;91.80;;;;;;5091789;28;20043;-63
2022/09/03 08:52:06;;;;;;;4.15;1.60;;;19.00;91.60;;;;;;5127989;28;20089;-63
2022/09/03 08:54:32;;;;;;;3.25;1.70;;;19.10;91.10;;;;;;5112636;28;20089;-63
2022/09/03 08:57:01;;;;;;;4.75;1.63;;;19.20;91.40;;;;;;5110379;28;20381;-63
2022/09/03 08:59:29;;;;;;;3.63;1.70;;;19.30;91.10;;;;;;5109390;28;20047;-63
2022/09/03 09:02:15;;;;;;;4.18;1.70;;;19.30;90.70;;;;;;5107093;28;20043;-63
2022/09/03 09:04:53;;;;;;;2.97;1.30;;;19.40;90.30;;;;;;5084542;28;20510;-64
2022/09/03 09:07:37;;;;;;;3.22;1.40;;;19.40;90.30;;;;;;5091486;28;20044;-64
2022/09/03 09:10:17;;;;;;;3.20;1.70;;;19.50;90.50;;;;;;5091303;28;20051;-64
2022/09/03 09:13:15;;;;;;;2.85;1.35;;;19.60;89.60;;;;;;5109769;28;20036;-63
2022/09/03 09:16:20;;;;;;;7.38;1.80;;;19.70;88.90;;;;;;5111724;28;20048;-63
2022/09/03 09:18:46;;;;;;;;;;;19.70;89.60;;;;;;5092235;28;20059;-64
2022/09/03 09:21:14;;;;;;;3.72;1.42;;;19.70;89.60;;;;;;5112243;28;19919;-65
2022/09/03 09:23:45;;;;;;;5.38;1.30;;;19.60;89.70;;;;;;5087224;28;20484;-64
2022/09/03 09:26:20;;;;;;;2.90;1.30;;;19.60;88.90;;;;;;5111855;28;20036;-64
2022/09/03 09:28:49;;;;;;;7.13;1.60;;;19.70;89.10;;;;;;5106475;27;20035;-65
2022/09/03 09:31:17;;;;;;;3.13;1.23;;;19.80;89.30;;;;;;5117707;27;20054;-65
2022/09/03 09:33:43;;;;;;;4.57;1.40;;;19.80;88.50;;;;;;5137002;27;20118;-64
2022/09/03 09:36:14;;;;;;;4.25;1.30;;;19.90;88.90;;;;;;5125195;27;20071;-62
2022/09/03 09:38:40;;;;;;;3.63;1.20;;;20.00;87.80;;;;;;5097374;28;20040;-63
2022/09/03 09:41:19;;;;;;;6.05;1.80;;;20.00;87.40;;;;;;5115397;28;20046;-63
2022/09/03 09:43:49;;;;;;;5.68;1.70;;;20.00;86.60;;;;;;5099657;27;20392;-63
2022/09/03 09:46:23;;;;;;;4.28;1.30;;;20.10;86.20;;;;;;5136269;27;20386;-63
2022/09/03 09:48:55;;;;;;;4.05;1.42;;;20.10;85.60;;;;;;5105764;27;20035;-62
2022/09/03 09:51:29;;;;;;;4.15;1.50;;;20.20;85.80;;;;;;5111706;27;20036;-62
2022/09/03 09:54:01;;;;;;;4.85;1.42;;;20.30;85.50;;;;;;5097921;28;20079;-62
2022/09/03 09:56:27;;;;;;;5.25;1.60;;;20.30;85.50;;;;;;5093017;28;20052;-63
2022/09/03 09:59:07;;;;;;;4.00;1.58;;;20.30;85.00;;;;;;5113638;28;20130;-64
2022/09/03 10:01:34;;;;;;;3.10;1.38;;;20.40;85.10;;;;;;5101127;28;20031;-64
2022/09/03 10:04:11;;;;;;;4.85;1.65;;;20.40;85.70;;;;;;5094925;28;20076;-64
2022/09/03 10:06:52;;;;;;;3.85;1.63;;;20.50;85.30;;;;;;5092640;28;20079;-64
2022/09/03 10:09:22;;;;;;;6.20;2.47;;;20.60;84.50;;;;;;5092781;28;20039;-63
2022/09/03 10:12:03;;;;;;;3.65;1.30;;;20.60;84.00;;;;;;5092905;28;20460;-63
2022/09/03 10:14:40;;;;;;;4.03;1.70;;;20.60;83.70;;;;;;5095679;28;20103;-64
2022/09/03 10:17:27;;;;;;;4.72;1.75;;;20.70;83.60;;;;;;5081726;28;20044;-64
2022/09/03 10:20:29;;;;;;;2.75;1.50;;;20.80;83.80;;;;;;5096274;28;20067;-64
2022/09/03 10:23:07;;;;;;;5.13;1.70;;;21.00;83.10;;;;;;5098899;27;20079;-64
2022/09/03 10:25:42;;;;;;;4.88;1.50;;;21.10;83.40;;;;;;5127842;27;20043;-64
2022/09/03 10:28:09;;;;;;;5.22;1.50;;;21.20;82.10;;;;;;5092771;28;20043;-63
2022/09/03 10:31:12;;;;;;;3.17;1.52;;;21.20;81.70;;;;;;5115022;27;20039;-64
2022/09/03 10:34:01;;;;;;;4.20;1.60;;;21.20;81.50;;;;;;5114164;28;20039;-64
2022/09/03 10:36:35;;;;;;;4.47;1.80;;;21.20;81.30;;;;;;5094296;28;20048;-64
2022/09/03 10:39:24;;;;;;;6.73;1.70;;;21.30;81.30;;;;;;5097613;27;20043;-63
2022/09/03 10:42:20;;;;;;;5.57;1.50;;;21.30;80.40;;;;;;5091726;28;20058;-63
2022/09/03 10:45:00;;;;;;;3.53;1.50;;;21.30;80.20;;;;;;5096989;28;20036;-63
2022/09/03 10:47:39;;;;;;;5.43;1.45;;;21.40;80.40;;;;;;5106574;27;20039;-63
2022/09/03 10:50:22;;;;;;;4.50;2.00;;;21.50;80.70;;;;;;5127305;27;20040;-64
2022/09/03 10:53:06;;;;;;;6.75;1.60;;;21.50;80.40;;;;;;5114854;28;20496;-65
2022/09/03 10:55:48;;;;;;;4.38;1.60;;;21.80;80.20;;;;;;5119978;27;20039;-69
2022/09/03 10:58:39;;;;;;;4.47;1.33;;;22.00;79.10;;;;;;5096348;28;20043;-66
2022/09/03 11:01:46;;;;;;;6.85;1.40;;;22.10;76.00;;;;;;5095166;27;20736;-66
2022/09/03 11:04:44;;;;;;;3.80;1.20;;;22.20;75.90;;;;;;5045322;27;20054;-65
2022/09/03 11:07:19;;;;;;;3.35;1.42;;;22.40;75.60;;;;;;5075406;28;20036;-67
2022/09/03 11:10:10;;;;;;;4.00;1.17;;;22.50;74.20;;;;;;5090287;27;20035;-65
2022/09/03 11:12:43;;;;;;;5.65;1.63;;;22.60;74.50;;;;;;5128543;27;20035;-64
2022/09/03 11:15:33;;;;;;;5.80;1.73;;;22.60;72.90;;;;;;5115753;27;20045;-64
2022/09/03 11:18:18;;;;;;;5.63;2.22;;;22.60;72.00;;;;;;5098551;27;20134;-64
2022/09/03 11:20:48;;;;;;;4.97;1.33;;;22.70;72.00;;;;;;5116250;27;20082;-64
2022/09/03 11:23:17;;;;;;;4.85;1.50;;;22.80;72.50;;;;;;5114856;27;20498;-64
2022/09/03 11:25:50;;;;;;;3.17;1.40;;;22.90;72.30;;;;;;5134615;27;20071;-64
2022/09/03 11:28:31;;;;;;;3.90;1.40;;;23.00;70.30;;;;;;5115766;27;20104;-64
2022/09/03 11:31:05;;;;;;;3.42;1.30;;;23.00;70.00;;;;;;5115427;27;20123;-64
2022/09/03 11:33:38;;;;;;;3.58;1.17;;;23.00;68.70;;;;;;5099021;27;20503;-64
2022/09/03 11:36:05;;;;;;;4.55;1.45;;;23.00;68.30;;;;;;5114869;27;20086;-64
2022/09/03 11:38:31;;;;;;;5.70;1.50;;;23.10;68.20;;;;;;5134569;27;20060;-63
2022/09/03 11:41:37;;;;;;;7.13;1.42;;;23.20;68.50;;;;;;5098892;27;20546;-63
2022/09/03 11:44:20;;;;;;;3.50;1.50;;;23.30;67.80;;;;;;5114483;27;20502;-64
2022/09/03 11:46:57;;;;;;;4.07;1.20;;;23.50;65.00;;;;;;5098853;27;20494;-64
2022/09/03 11:49:31;;;;;;;6.85;1.38;;;23.50;64.40;;;;;;5115170;27;20081;-64
2022/09/03 11:52:03;;;;;;;4.60;1.38;;;23.60;63.80;;;;;;5133468;27;20114;-64
2022/09/03 11:54:31;;;;;;;6.05;1.50;;;23.60;64.40;;;;;;5133921;27;20113;-64
2022/09/03 11:57:12;;;;;;;9.30;1.38;;;23.70;64.30;;;;;;5133988;27;20444;-64
2022/09/03 11:59:41;;;;;;;4.40;1.55;;;23.70;62.50;;;;;;5098967;27;20039;-64
2022/09/03 12:02:22;;;;;;;3.60;1.30;;;23.70;62.70;;;;;;5114844;27;20479;-64
2022/09/03 12:05:02;;;;;;;4.00;1.10;;;23.80;62.00;;;;;;5114847;27;20053;-64
2022/09/03 12:07:44;;;;;;;2.95;1.27;;;23.80;62.30;;;;;;5133657;27;20035;-64
2022/09/03 12:10:09;;;;;;;3.97;1.40;;;23.90;60.70;;;;;;5115074;27;20031;-64
2022/09/03 12:12:52;;;;;;;3.30;1.27;;;23.90;60.80;;;;;;5133088;27;20045;-63
2022/09/03 12:15:34;;;;;;;9.25;1.85;;;24.00;60.50;;;;;;5114795;27;20050;-64
2022/09/03 12:18:18;;;;;;;2.70;1.13;;;24.00;59.80;;;;;;5133394;27;20054;-64
2022/09/03 12:21:05;;;;;;;3.17;1.40;;;24.10;59.70;;;;;;5133679;27;20039;-64
2022/09/03 12:23:41;;;;;;;4.13;1.40;;;24.10;59.60;;;;;;5133505;27;20051;-64
2022/09/03 12:26:24;;;;;;;4.35;1.70;;;24.10;59.50;;;;;;5097149;27;20035;-64
2022/09/03 12:28:54;;;;;;;6.53;1.40;;;24.20;57.80;;;;;;5115600;28;20092;-63
2022/09/03 12:31:28;;;;;;;2.40;1.10;;;24.20;58.30;;;;;;5114959;27;20089;-63
2022/09/03 12:34:00;;;;;;;3.10;1.27;;;24.20;58.00;;;;;;5114557;27;20100;-64
2022/09/03 12:36:39;;;;;;;3.75;1.65;;;24.20;57.60;;;;;;5114335;27;20039;-64
2022/09/03 12:39:16;;;;;;;4.63;1.35;;;24.20;57.90;;;;;;5114640;27;20047;-64
2022/09/03 12:42:03;;;;;;;4.95;1.55;;;24.20;58.10;;;;;;5133435;27;20415;-63
2022/09/03 12:44:33;;;;;;;4.45;1.58;;;24.30;58.30;;;;;;5115182;28;20475;-64
2022/09/03 12:47:08;;;;;;;2.35;1.17;;;24.40;58.00;;;;;;5114260;28;20043;-64
2022/09/03 12:49:42;;;;;;;6.18;1.80;;;24.40;57.60;;;;;;5114898;28;20045;-64
2022/09/03 12:52:23;;;;;;;4.15;1.23;;;24.50;57.50;;;;;;5114490;28;20057;-64
2022/09/03 12:55:07;;;;;;;4.25;1.52;;;24.60;56.90;;;;;;5113982;28;20108;-63
2022/09/03 12:57:42;;;;;;;5.47;1.42;;;24.60;55.50;;;;;;5133146;28;20047;-64
2022/09/03 13:00:13;;;;;;;4.05;1.30;;;24.50;56.20;;;;;;5097154;28;20050;-64
2022/09/03 13:03:02;;;;;;;3.28;1.13;;;24.50;55.60;;;;;;5132549;28;20118;-64
2022/09/03 13:05:43;;;;;;;4.05;1.45;;;24.50;55.50;;;;;;5136779;27;20051;-64
2022/09/03 13:08:24;;;;;;;3.45;1.23;;;24.40;55.30;;;;;;5136043;27;20035;-64
2022/09/03 13:10:54;;;;;;;3.67;1.30;;;24.30;55.10;;;;;;5137440;27;20046;-64
2022/09/03 13:13:26;;;;;;;4.53;1.25;;;24.30;55.30;;;;;;5136726;27;20050;-64
2022/09/03 13:16:19;;;;;;;4.70;1.30;;;24.40;55.60;;;;;;5136793;27;20430;-63
2022/09/03 13:19:00;;;;;;;4.05;1.50;;;24.50;54.80;;;;;;5118534;27;20059;-64
2022/09/03 13:21:37;;;;;;;2.08;0.90;;;24.50;54.00;;;;;;5117469;27;20047;-64
2022/09/03 13:24:09;;;;;;;3.55;1.58;;;24.50;54.50;;;;;;5136554;27;20039;-64
2022/09/03 13:26:44;;;;;;;2.22;1.15;;;24.50;54.90;;;;;;5136901;27;20035;-64